sensor_id;sensor_type;location;lat;lon;timestamp;temperature;humidity
53264;DHT22;39153;52.680;6.172;2022-08-05T00:00:04;19.90;99.90
53264;DHT22;39153;52.680;6.172;2022-08-05T00:02:30;19.90;99.90
53264;DHT22;39153;52.680;6.172;2022-08-05T00:04:56;19.90;99.90
53264;DHT22;39153;52.680;6.172;2022-08-05T00:07:22;19.80;99.90
53264;DHT22;39153;52.680;6.172;2022-08-05T00:09:48;19.70;99.90
53264;DHT22;39153;52.680;6.172;2022-08-05T00:12:14;19.90;99.90
53264;DHT22;39153;52.680;6.172;2022-08-05T00:14:40;19.90;99.90
53264;DHT22;39153;52.680;6.172;2022-08-05T00:17:05;20.00;99.90
53264;DHT22;39153;52.680;6.172;2022-08-05T00:19:31;19.90;99.90
53264;DHT22;39153;52.680;6.172;2022-08-05T00:21:57;19.90;99.90
53264;DHT22;39153;52.680;6.172;2022-08-05T00:24:23;20.00;99.90
53264;DHT22;39153;52.680;6.172;2022-08-05T00:26:48;19.90;99.90
53264;DHT22;39153;52.680;6.172;2022-08-05T00:29:14;20.00;99.90
53264;DHT22;39153;52.680;6.172;2022-08-05T00:31:40;19.90;99.90
53264;DHT22;39153;52.680;6.172;2022-08-05T00:34:05;19.80;99.90
53264;DHT22;39153;52.680;6.172;2022-08-05T00:36:31;19.90;99.90
53264;DHT22;39153;52.680;6.172;2022-08-05T00:38:57;20.00;99.90
53264;DHT22;39153;52.680;6.172;2022-08-05T00:41:30;20.00;99.90
53264;DHT22;39153;52.680;6.172;2022-08-05T00:43:56;20.00;99.90
53264;DHT22;39153;52.680;6.172;2022-08-05T00:46:23;19.90;99.90
53264;DHT22;39153;52.680;6.172;2022-08-05T00:48:49;19.90;99.90
53264;DHT22;39153;52.680;6.172;2022-08-05T00:51:17;19.80;99.90
53264;DHT22;39153;52.680;6.172;2022-08-05T00:53:43;19.90;99.90
53264;DHT22;39153;52.680;6.172;2022-08-05T00:56:09;19.80;99.90
53264;DHT22;39153;52.680;6.172;2022-08-05T00:58:35;19.80;99.90
53264;DHT22;39153;52.680;6.172;2022-08-05T01:01:01;19.70;99.90
53264;DHT22;39153;52.680;6.172;2022-08-05T01:03:26;19.70;99.90
53264;DHT22;39153;52.680;6.172;2022-08-05T01:05:55;19.70;99.90
53264;DHT22;39153;52.680;6.172;2022-08-05T01:08:21;19.80;99.90
53264;DHT22;39153;52.680;6.172;2022-08-05T01:11:10;19.90;99.90
53264;DHT22;39153;52.680;6.172;2022-08-05T01:16:52;19.60;99.90
53264;DHT22;39153;52.680;6.172;2022-08-05T01:25:04;19.60;99.90
53264;DHT22;39153;52.680;6.172;2022-08-05T01:30:11;19.40;99.90
53264;DHT22;39153;52.680;6.172;2022-08-05T01:32:39;19.40;99.90
53264;DHT22;39153;52.680;6.172;2022-08-05T01:35:12;19.40;99.90
53264;DHT22;39153;52.680;6.172;2022-08-05T01:37:50;19.40;99.90
53264;DHT22;39153;52.680;6.172;2022-08-05T01:40:17;19.40;99.90
53264;DHT22;39153;52.680;6.172;2022-08-05T01:42:45;19.40;99.90
53264;DHT22;39153;52.680;6.172;2022-08-05T01:45:13;19.30;99.90
53264;DHT22;39153;52.680;6.172;2022-08-05T01:47:39;19.40;99.90
53264;DHT22;39153;52.680;6.172;2022-08-05T01:50:14;19.30;99.90
53264;DHT22;39153;52.680;6.172;2022-08-05T01:52:42;19.30;99.90
53264;DHT22;39153;52.680;6.172;2022-08-05T01:55:10;19.20;99.90
53264;DHT22;39153;52.680;6.172;2022-08-05T01:57:40;19.30;99.90
53264;DHT22;39153;52.680;6.172;2022-08-05T02:00:08;19.10;99.90
53264;DHT22;39153;52.680;6.172;2022-08-05T02:02:40;19.10;99.90
53264;DHT22;39153;52.680;6.172;2022-08-05T02:05:09;19.10;99.90
53264;DHT22;39153;52.680;6.172;2022-08-05T02:07:35;19.00;99.90
53264;DHT22;39153;52.680;6.172;2022-08-05T02:10:03;19.00;99.90
53264;DHT22;39153;52.680;6.172;2022-08-05T02:12:43;19.00;99.90
53264;DHT22;39153;52.680;6.172;2022-08-05T02:17:51;19.00;99.90
53264;DHT22;39153;52.680;6.172;2022-08-05T02:20:22;18.90;99.90
53264;DHT22;39153;52.680;6.172;2022-08-05T02:23:08;18.80;99.90
53264;DHT22;39153;52.680;6.172;2022-08-05T02:25:36;18.80;99.90
53264;DHT22;39153;52.680;6.172;2022-08-05T02:28:06;18.80;99.90
53264;DHT22;39153;52.680;6.172;2022-08-05T02:30:44;18.80;99.90
53264;DHT22;39153;52.680;6.172;2022-08-05T02:33:15;18.80;99.90
53264;DHT22;39153;52.680;6.172;2022-08-05T02:35:43;18.70;99.90
53264;DHT22;39153;52.680;6.172;2022-08-05T02:38:09;18.70;99.90
53264;DHT22;39153;52.680;6.172;2022-08-05T02:40:40;18.80;99.90
53264;DHT22;39153;52.680;6.172;2022-08-05T02:43:07;18.80;99.90
53264;DHT22;39153;52.680;6.172;2022-08-05T02:45:35;18.70;99.90
53264;DHT22;39153;52.680;6.172;2022-08-05T02:48:01;18.80;99.90
53264;DHT22;39153;52.680;6.172;2022-08-05T02:50:28;18.90;99.90
53264;DHT22;39153;52.680;6.172;2022-08-05T02:52:54;18.80;99.90
53264;DHT22;39153;52.680;6.172;2022-08-05T02:55:21;18.80;99.90
53264;DHT22;39153;52.680;6.172;2022-08-05T02:57:48;18.60;99.90
53264;DHT22;39153;52.680;6.172;2022-08-05T03:00:16;18.60;99.90
53264;DHT22;39153;52.680;6.172;2022-08-05T03:02:44;18.60;99.90
53264;DHT22;39153;52.680;6.172;2022-08-05T03:05:11;18.60;99.90
53264;DHT22;39153;52.680;6.172;2022-08-05T03:07:38;18.60;99.90
53264;DHT22;39153;52.680;6.172;2022-08-05T03:10:06;18.60;99.90
53264;DHT22;39153;52.680;6.172;2022-08-05T03:12:33;18.60;99.90
53264;DHT22;39153;52.680;6.172;2022-08-05T03:15:00;18.60;99.90
53264;DHT22;39153;52.680;6.172;2022-08-05T03:17:26;18.50;99.90
53264;DHT22;39153;52.680;6.172;2022-08-05T03:19:51;18.50;99.90
53264;DHT22;39153;52.680;6.172;2022-08-05T03:22:17;18.50;99.90
53264;DHT22;39153;52.680;6.172;2022-08-05T03:24:44;18.40;99.90
53264;DHT22;39153;52.680;6.172;2022-08-05T03:27:11;18.40;99.90
53264;DHT22;39153;52.680;6.172;2022-08-05T03:29:37;18.30;99.90
53264;DHT22;39153;52.680;6.172;2022-08-05T03:32:08;18.40;99.90
53264;DHT22;39153;52.680;6.172;2022-08-05T03:34:35;18.40;99.90
53264;DHT22;39153;52.680;6.172;2022-08-05T03:37:02;18.30;99.90
53264;DHT22;39153;52.680;6.172;2022-08-05T03:39:28;18.40;99.90
53264;DHT22;39153;52.680;6.172;2022-08-05T03:41:54;18.30;99.90
53264;DHT22;39153;52.680;6.172;2022-08-05T03:44:20;18.30;99.90
53264;DHT22;39153;52.680;6.172;2022-08-05T03:46:46;18.30;99.90
53264;DHT22;39153;52.680;6.172;2022-08-05T03:49:12;18.30;99.90
53264;DHT22;39153;52.680;6.172;2022-08-05T03:51:41;18.20;99.90
53264;DHT22;39153;52.680;6.172;2022-08-05T03:54:13;18.20;99.90
53264;DHT22;39153;52.680;6.172;2022-08-05T03:56:43;18.20;99.90
53264;DHT22;39153;52.680;6.172;2022-08-05T03:59:16;18.20;99.90
53264;DHT22;39153;52.680;6.172;2022-08-05T04:01:46;18.20;99.90
53264;DHT22;39153;52.680;6.172;2022-08-05T04:04:15;18.20;99.90
53264;DHT22;39153;52.680;6.172;2022-08-05T04:06:41;18.20;99.90
53264;DHT22;39153;52.680;6.172;2022-08-05T04:09:08;18.20;99.90
53264;DHT22;39153;52.680;6.172;2022-08-05T04:11:35;18.20;99.90
53264;DHT22;39153;52.680;6.172;2022-08-05T04:14:02;18.20;99.90
53264;DHT22;39153;52.680;6.172;2022-08-05T04:16:30;18.20;99.90
53264;DHT22;39153;52.680;6.172;2022-08-05T04:18:56;18.10;99.90
53264;DHT22;39153;52.680;6.172;2022-08-05T04:21:22;18.10;99.90
53264;DHT22;39153;52.680;6.172;2022-08-05T04:23:48;18.20;99.90
53264;DHT22;39153;52.680;6.172;2022-08-05T04:26:14;18.10;99.90
53264;DHT22;39153;52.680;6.172;2022-08-05T04:28:40;18.10;99.90
53264;DHT22;39153;52.680;6.172;2022-08-05T04:31:06;18.20;99.90
53264;DHT22;39153;52.680;6.172;2022-08-05T04:33:31;18.30;99.90
53264;DHT22;39153;52.680;6.172;2022-08-05T04:35:57;18.30;99.90
53264;DHT22;39153;52.680;6.172;2022-08-05T04:38:23;18.30;99.90
53264;DHT22;39153;52.680;6.172;2022-08-05T04:40:48;18.30;99.90
53264;DHT22;39153;52.680;6.172;2022-08-05T04:43:14;18.30;99.90
53264;DHT22;39153;52.680;6.172;2022-08-05T04:45:40;18.30;99.90
53264;DHT22;39153;52.680;6.172;2022-08-05T04:48:10;18.30;99.90
53264;DHT22;39153;52.680;6.172;2022-08-05T04:50:41;18.20;99.90
53264;DHT22;39153;52.680;6.172;2022-08-05T04:53:08;18.20;99.90
53264;DHT22;39153;52.680;6.172;2022-08-05T04:55:37;18.20;99.90
53264;DHT22;39153;52.680;6.172;2022-08-05T04:58:04;18.10;99.90
53264;DHT22;39153;52.680;6.172;2022-08-05T05:00:34;18.20;99.90
53264;DHT22;39153;52.680;6.172;2022-08-05T05:03:01;18.10;99.90
53264;DHT22;39153;52.680;6.172;2022-08-05T05:05:27;18.10;99.90
53264;DHT22;39153;52.680;6.172;2022-08-05T05:07:54;18.10;99.90
53264;DHT22;39153;52.680;6.172;2022-08-05T05:10:21;18.00;99.90
53264;DHT22;39153;52.680;6.172;2022-08-05T05:12:46;18.00;99.90
53264;DHT22;39153;52.680;6.172;2022-08-05T05:15:12;18.00;99.90
53264;DHT22;39153;52.680;6.172;2022-08-05T05:17:42;18.00;99.90
53264;DHT22;39153;52.680;6.172;2022-08-05T05:20:12;17.90;99.90
53264;DHT22;39153;52.680;6.172;2022-08-05T05:22:38;17.90;99.90
53264;DHT22;39153;52.680;6.172;2022-08-05T05:25:05;17.80;99.90
53264;DHT22;39153;52.680;6.172;2022-08-05T05:27:32;17.90;99.90
53264;DHT22;39153;52.680;6.172;2022-08-05T05:29:58;17.80;99.90
53264;DHT22;39153;52.680;6.172;2022-08-05T05:32:24;17.70;99.90
53264;DHT22;39153;52.680;6.172;2022-08-05T05:34:50;17.70;99.90
53264;DHT22;39153;52.680;6.172;2022-08-05T05:37:16;17.60;99.90
53264;DHT22;39153;52.680;6.172;2022-08-05T05:39:42;17.60;99.90
53264;DHT22;39153;52.680;6.172;2022-08-05T05:42:07;17.60;99.90
53264;DHT22;39153;52.680;6.172;2022-08-05T05:44:33;17.60;99.90
53264;DHT22;39153;52.680;6.172;2022-08-05T05:46:59;17.50;99.90
53264;DHT22;39153;52.680;6.172;2022-08-05T05:49:25;17.60;99.90
53264;DHT22;39153;52.680;6.172;2022-08-05T05:51:52;17.70;99.90
53264;DHT22;39153;52.680;6.172;2022-08-05T05:54:18;17.70;99.90
53264;DHT22;39153;52.680;6.172;2022-08-05T05:56:43;17.70;99.90
53264;DHT22;39153;52.680;6.172;2022-08-05T05:59:09;17.70;99.90
53264;DHT22;39153;52.680;6.172;2022-08-05T06:01:37;17.70;99.90
53264;DHT22;39153;52.680;6.172;2022-08-05T06:04:04;17.80;99.90
53264;DHT22;39153;52.680;6.172;2022-08-05T06:06:29;17.90;99.90
53264;DHT22;39153;52.680;6.172;2022-08-05T06:08:55;17.90;99.90
53264;DHT22;39153;52.680;6.172;2022-08-05T06:11:21;17.90;99.90
53264;DHT22;39153;52.680;6.172;2022-08-05T06:13:46;18.00;99.90
53264;DHT22;39153;52.680;6.172;2022-08-05T06:16:12;17.90;99.90
53264;DHT22;39153;52.680;6.172;2022-08-05T06:18:38;17.90;99.90
53264;DHT22;39153;52.680;6.172;2022-08-05T06:21:03;17.90;99.90
53264;DHT22;39153;52.680;6.172;2022-08-05T06:23:29;17.90;99.90
53264;DHT22;39153;52.680;6.172;2022-08-05T06:25:56;18.00;99.90
53264;DHT22;39153;52.680;6.172;2022-08-05T06:28:22;18.00;99.90
53264;DHT22;39153;52.680;6.172;2022-08-05T06:30:48;18.10;99.90
53264;DHT22;39153;52.680;6.172;2022-08-05T06:33:13;18.10;99.90
53264;DHT22;39153;52.680;6.172;2022-08-05T06:35:39;18.20;99.90
53264;DHT22;39153;52.680;6.172;2022-08-05T06:38:05;18.30;99.90
53264;DHT22;39153;52.680;6.172;2022-08-05T06:40:31;18.40;99.90
53264;DHT22;39153;52.680;6.172;2022-08-05T06:42:56;18.50;99.90
53264;DHT22;39153;52.680;6.172;2022-08-05T06:45:22;18.60;99.90
53264;DHT22;39153;52.680;6.172;2022-08-05T06:47:48;18.60;99.90
53264;DHT22;39153;52.680;6.172;2022-08-05T06:50:13;18.70;99.90
53264;DHT22;39153;52.680;6.172;2022-08-05T06:52:39;18.80;99.90
53264;DHT22;39153;52.680;6.172;2022-08-05T06:55:05;19.00;99.90
53264;DHT22;39153;52.680;6.172;2022-08-05T06:57:31;19.10;99.90
53264;DHT22;39153;52.680;6.172;2022-08-05T06:59:57;19.20;99.90
53264;DHT22;39153;52.680;6.172;2022-08-05T07:02:23;19.30;99.90
53264;DHT22;39153;52.680;6.172;2022-08-05T07:04:48;19.50;99.90
53264;DHT22;39153;52.680;6.172;2022-08-05T07:07:14;19.60;99.90
53264;DHT22;39153;52.680;6.172;2022-08-05T07:09:40;19.80;99.90
53264;DHT22;39153;52.680;6.172;2022-08-05T07:12:06;19.70;99.90
53264;DHT22;39153;52.680;6.172;2022-08-05T07:14:31;19.60;99.90
53264;DHT22;39153;52.680;6.172;2022-08-05T07:17:15;19.60;99.90
53264;DHT22;39153;52.680;6.172;2022-08-05T07:19:41;19.70;99.90
53264;DHT22;39153;52.680;6.172;2022-08-05T07:22:07;19.70;99.90
53264;DHT22;39153;52.680;6.172;2022-08-05T07:24:32;19.70;99.90
53264;DHT22;39153;52.680;6.172;2022-08-05T07:26:58;19.50;99.90
53264;DHT22;39153;52.680;6.172;2022-08-05T07:29:24;19.60;99.90
53264;DHT22;39153;52.680;6.172;2022-08-05T07:31:50;19.50;99.90
53264;DHT22;39153;52.680;6.172;2022-08-05T07:34:15;19.60;99.90
53264;DHT22;39153;52.680;6.172;2022-08-05T07:36:41;19.50;99.90
53264;DHT22;39153;52.680;6.172;2022-08-05T07:39:08;19.60;99.90
53264;DHT22;39153;52.680;6.172;2022-08-05T07:41:34;19.60;99.90
53264;DHT22;39153;52.680;6.172;2022-08-05T07:44:02;19.50;99.90
53264;DHT22;39153;52.680;6.172;2022-08-05T07:46:29;19.80;99.90
53264;DHT22;39153;52.680;6.172;2022-08-05T07:48:57;19.60;99.90
53264;DHT22;39153;52.680;6.172;2022-08-05T07:51:22;19.60;99.90
53264;DHT22;39153;52.680;6.172;2022-08-05T07:53:48;19.60;99.90
53264;DHT22;39153;52.680;6.172;2022-08-05T07:56:14;19.60;99.90
53264;DHT22;39153;52.680;6.172;2022-08-05T07:58:40;19.50;99.90
53264;DHT22;39153;52.680;6.172;2022-08-05T08:01:06;19.50;99.90
53264;DHT22;39153;52.680;6.172;2022-08-05T08:03:31;19.80;99.90
53264;DHT22;39153;52.680;6.172;2022-08-05T08:05:57;19.90;99.90
53264;DHT22;39153;52.680;6.172;2022-08-05T08:08:23;20.00;99.90
53264;DHT22;39153;52.680;6.172;2022-08-05T08:10:49;20.10;99.90
53264;DHT22;39153;52.680;6.172;2022-08-05T08:13:15;20.10;99.90
53264;DHT22;39153;52.680;6.172;2022-08-05T08:15:40;20.30;99.90
53264;DHT22;39153;52.680;6.172;2022-08-05T08:18:06;20.40;99.90
53264;DHT22;39153;52.680;6.172;2022-08-05T08:20:32;20.40;99.90
53264;DHT22;39153;52.680;6.172;2022-08-05T08:22:59;20.40;99.90
53264;DHT22;39153;52.680;6.172;2022-08-05T08:25:26;20.50;99.90
53264;DHT22;39153;52.680;6.172;2022-08-05T08:27:53;20.30;99.90
53264;DHT22;39153;52.680;6.172;2022-08-05T08:30:19;20.40;99.90
53264;DHT22;39153;52.680;6.172;2022-08-05T08:32:44;20.30;99.90
53264;DHT22;39153;52.680;6.172;2022-08-05T08:35:10;20.20;99.90
53264;DHT22;39153;52.680;6.172;2022-08-05T08:37:36;20.40;99.90
53264;DHT22;39153;52.680;6.172;2022-08-05T08:40:03;20.40;99.90
53264;DHT22;39153;52.680;6.172;2022-08-05T08:42:29;20.60;99.90
53264;DHT22;39153;52.680;6.172;2022-08-05T08:44:56;20.60;99.90
53264;DHT22;39153;52.680;6.172;2022-08-05T08:47:24;20.80;99.90
53264;DHT22;39153;52.680;6.172;2022-08-05T08:49:54;20.90;99.90
53264;DHT22;39153;52.680;6.172;2022-08-05T08:52:28;21.00;99.90
53264;DHT22;39153;52.680;6.172;2022-08-05T08:54:54;21.00;99.90
53264;DHT22;39153;52.680;6.172;2022-08-05T08:57:20;21.20;99.90
53264;DHT22;39153;52.680;6.172;2022-08-05T08:59:47;21.10;99.90
53264;DHT22;39153;52.680;6.172;2022-08-05T09:02:14;20.80;99.90
53264;DHT22;39153;52.680;6.172;2022-08-05T09:04:43;20.80;99.90
53264;DHT22;39153;52.680;6.172;2022-08-05T09:07:09;21.10;99.90
53264;DHT22;39153;52.680;6.172;2022-08-05T09:09:36;21.30;99.90
53264;DHT22;39153;52.680;6.172;2022-08-05T09:12:07;21.20;99.90
53264;DHT22;39153;52.680;6.172;2022-08-05T09:14:34;21.00;99.90
53264;DHT22;39153;52.680;6.172;2022-08-05T09:17:01;21.10;99.90
53264;DHT22;39153;52.680;6.172;2022-08-05T09:19:28;21.40;99.90
53264;DHT22;39153;52.680;6.172;2022-08-05T09:21:53;21.30;99.90
53264;DHT22;39153;52.680;6.172;2022-08-05T09:24:19;21.40;99.40
53264;DHT22;39153;52.680;6.172;2022-08-05T09:26:47;21.40;98.10
53264;DHT22;39153;52.680;6.172;2022-08-05T09:29:14;21.80;99.20
53264;DHT22;39153;52.680;6.172;2022-08-05T09:31:40;21.90;99.40
53264;DHT22;39153;52.680;6.172;2022-08-05T09:34:09;21.90;99.90
53264;DHT22;39153;52.680;6.172;2022-08-05T09:36:47;21.40;99.20
53264;DHT22;39153;52.680;6.172;2022-08-05T09:39:19;21.10;99.90
53264;DHT22;39153;52.680;6.172;2022-08-05T09:42:03;21.30;99.10
53264;DHT22;39153;52.680;6.172;2022-08-05T09:45:04;21.50;96.90
53264;DHT22;39153;52.680;6.172;2022-08-05T09:47:30;21.80;97.00
53264;DHT22;39153;52.680;6.172;2022-08-05T09:49:56;22.10;96.70
53264;DHT22;39153;52.680;6.172;2022-08-05T09:52:27;22.00;94.40
53264;DHT22;39153;52.680;6.172;2022-08-05T09:55:06;22.10;94.80
53264;DHT22;39153;52.680;6.172;2022-08-05T09:57:41;22.30;95.90
53264;DHT22;39153;52.680;6.172;2022-08-05T10:00:14;22.20;95.60
53264;DHT22;39153;52.680;6.172;2022-08-05T10:02:45;22.10;94.30
53264;DHT22;39153;52.680;6.172;2022-08-05T10:07:54;21.70;96.30
53264;DHT22;39153;52.680;6.172;2022-08-05T10:13:08;21.70;95.90
53264;DHT22;39153;52.680;6.172;2022-08-05T10:15:36;21.50;95.60
53264;DHT22;39153;52.680;6.172;2022-08-05T10:18:19;21.40;94.60
53264;DHT22;39153;52.680;6.172;2022-08-05T10:20:49;21.60;93.60
53264;DHT22;39153;52.680;6.172;2022-08-05T10:23:22;21.80;94.00
53264;DHT22;39153;52.680;6.172;2022-08-05T10:25:48;22.10;91.50
53264;DHT22;39153;52.680;6.172;2022-08-05T10:28:15;22.00;91.80
53264;DHT22;39153;52.680;6.172;2022-08-05T10:30:42;22.20;91.70
53264;DHT22;39153;52.680;6.172;2022-08-05T10:33:07;22.30;91.80
53264;DHT22;39153;52.680;6.172;2022-08-05T10:35:34;22.40;92.10
53264;DHT22;39153;52.680;6.172;2022-08-05T10:38:01;22.60;90.40
53264;DHT22;39153;52.680;6.172;2022-08-05T10:40:44;22.30;87.60
53264;DHT22;39153;52.680;6.172;2022-08-05T10:46:03;22.70;89.10
53264;DHT22;39153;52.680;6.172;2022-08-05T10:51:07;22.70;83.80
53264;DHT22;39153;52.680;6.172;2022-08-05T10:56:14;22.70;90.50
53264;DHT22;39153;52.680;6.172;2022-08-05T11:01:13;23.10;88.60
53264;DHT22;39153;52.680;6.172;2022-08-05T11:03:58;23.30;86.40
53264;DHT22;39153;52.680;6.172;2022-08-05T11:06:24;23.10;85.10
53264;DHT22;39153;52.680;6.172;2022-08-05T11:11:36;23.00;87.10
53264;DHT22;39153;52.680;6.172;2022-08-05T11:14:02;23.20;87.10
53264;DHT22;39153;52.680;6.172;2022-08-05T11:16:29;23.30;88.60
53264;DHT22;39153;52.680;6.172;2022-08-05T11:19:29;23.10;84.90
53264;DHT22;39153;52.680;6.172;2022-08-05T11:22:02;23.00;87.30
53264;DHT22;39153;52.680;6.172;2022-08-05T11:24:44;22.80;84.90
53264;DHT22;39153;52.680;6.172;2022-08-05T11:27:29;22.40;85.10
53264;DHT22;39153;52.680;6.172;2022-08-05T11:29:59;22.70;86.50
53264;DHT22;39153;52.680;6.172;2022-08-05T11:32:27;22.40;85.60
53264;DHT22;39153;52.680;6.172;2022-08-05T11:34:54;22.50;87.40
53264;DHT22;39153;52.680;6.172;2022-08-05T11:37:40;22.40;88.20
53264;DHT22;39153;52.680;6.172;2022-08-05T11:40:06;22.50;86.60
53264;DHT22;39153;52.680;6.172;2022-08-05T11:42:33;22.50;87.70
53264;DHT22;39153;52.680;6.172;2022-08-05T11:45:03;22.30;88.60
53264;DHT22;39153;52.680;6.172;2022-08-05T11:47:32;22.40;85.30
53264;DHT22;39153;52.680;6.172;2022-08-05T11:49:59;22.50;88.20
53264;DHT22;39153;52.680;6.172;2022-08-05T11:52:27;22.60;87.90
53264;DHT22;39153;52.680;6.172;2022-08-05T11:54:53;22.40;83.70
53264;DHT22;39153;52.680;6.172;2022-08-05T11:57:19;22.50;88.20
53264;DHT22;39153;52.680;6.172;2022-08-05T11:59:45;22.30;89.30
53264;DHT22;39153;52.680;6.172;2022-08-05T12:02:11;22.50;90.40
53264;DHT22;39153;52.680;6.172;2022-08-05T12:04:46;22.60;90.20
53264;DHT22;39153;52.680;6.172;2022-08-05T12:07:16;22.50;90.60
53264;DHT22;39153;52.680;6.172;2022-08-05T12:09:52;22.20;90.50
53264;DHT22;39153;52.680;6.172;2022-08-05T12:12:23;22.20;90.70
53264;DHT22;39153;52.680;6.172;2022-08-05T12:14:49;22.00;90.90
53264;DHT22;39153;52.680;6.172;2022-08-05T12:17:15;21.80;90.70
53264;DHT22;39153;52.680;6.172;2022-08-05T12:22:12;21.90;90.80
53264;DHT22;39153;52.680;6.172;2022-08-05T12:24:44;21.90;90.90
53264;DHT22;39153;52.680;6.172;2022-08-05T12:27:19;21.80;90.70
53264;DHT22;39153;52.680;6.172;2022-08-05T12:29:45;21.70;91.50
53264;DHT22;39153;52.680;6.172;2022-08-05T12:32:22;21.60;92.20
53264;DHT22;39153;52.680;6.172;2022-08-05T12:34:48;21.70;92.60
53264;DHT22;39153;52.680;6.172;2022-08-05T12:37:15;21.70;92.40
53264;DHT22;39153;52.680;6.172;2022-08-05T12:39:41;21.60;91.60
53264;DHT22;39153;52.680;6.172;2022-08-05T12:42:15;21.50;90.10
53264;DHT22;39153;52.680;6.172;2022-08-05T12:44:42;21.40;91.60
53264;DHT22;39153;52.680;6.172;2022-08-05T12:47:09;21.60;92.40
53264;DHT22;39153;52.680;6.172;2022-08-05T12:49:39;21.70;91.40
53264;DHT22;39153;52.680;6.172;2022-08-05T12:52:14;21.50;92.10
53264;DHT22;39153;52.680;6.172;2022-08-05T12:54:41;21.60;92.60
53264;DHT22;39153;52.680;6.172;2022-08-05T12:57:08;21.60;92.30
53264;DHT22;39153;52.680;6.172;2022-08-05T12:59:51;21.50;92.00
53264;DHT22;39153;52.680;6.172;2022-08-05T13:02:24;21.50;92.20
53264;DHT22;39153;52.680;6.172;2022-08-05T13:04:51;21.50;92.50
53264;DHT22;39153;52.680;6.172;2022-08-05T13:07:19;21.60;92.50
53264;DHT22;39153;52.680;6.172;2022-08-05T13:09:54;21.80;92.40
53264;DHT22;39153;52.680;6.172;2022-08-05T13:12:22;21.70;91.80
53264;DHT22;39153;52.680;6.172;2022-08-05T13:15:09;21.60;92.10
53264;DHT22;39153;52.680;6.172;2022-08-05T13:17:35;21.40;92.00
53264;DHT22;39153;52.680;6.172;2022-08-05T13:20:07;21.30;92.20
53264;DHT22;39153;52.680;6.172;2022-08-05T13:22:35;21.30;92.00
53264;DHT22;39153;52.680;6.172;2022-08-05T13:25:06;21.10;92.40
53264;DHT22;39153;52.680;6.172;2022-08-05T13:30:04;20.90;92.30
53264;DHT22;39153;52.680;6.172;2022-08-05T13:32:30;20.80;92.70
53264;DHT22;39153;52.680;6.172;2022-08-05T13:34:55;20.90;93.60
53264;DHT22;39153;52.680;6.172;2022-08-05T13:37:21;20.90;93.20
53264;DHT22;39153;52.680;6.172;2022-08-05T13:39:48;20.90;93.20
53264;DHT22;39153;52.680;6.172;2022-08-05T13:42:14;21.10;93.20
53264;DHT22;39153;52.680;6.172;2022-08-05T13:44:44;21.10;93.60
53264;DHT22;39153;52.680;6.172;2022-08-05T13:47:10;20.90;93.20
53264;DHT22;39153;52.680;6.172;2022-08-05T13:49:35;21.30;93.30
53264;DHT22;39153;52.680;6.172;2022-08-05T13:52:11;21.30;93.10
53264;DHT22;39153;52.680;6.172;2022-08-05T13:54:37;21.40;92.40
53264;DHT22;39153;52.680;6.172;2022-08-05T13:57:03;21.40;92.40
53264;DHT22;39153;52.680;6.172;2022-08-05T13:59:29;21.40;92.80
53264;DHT22;39153;52.680;6.172;2022-08-05T14:01:56;21.50;92.70
53264;DHT22;39153;52.680;6.172;2022-08-05T14:04:22;21.80;92.40
53264;DHT22;39153;52.680;6.172;2022-08-05T14:07:06;21.80;92.70
53264;DHT22;39153;52.680;6.172;2022-08-05T14:09:33;21.90;92.20
53264;DHT22;39153;52.680;6.172;2022-08-05T14:11:58;22.10;91.90
53264;DHT22;39153;52.680;6.172;2022-08-05T14:14:24;22.10;92.20
53264;DHT22;39153;52.680;6.172;2022-08-05T14:16:50;22.10;92.50
53264;DHT22;39153;52.680;6.172;2022-08-05T14:19:16;22.10;92.80
53264;DHT22;39153;52.680;6.172;2022-08-05T14:21:42;22.10;92.80
53264;DHT22;39153;52.680;6.172;2022-08-05T14:24:07;22.20;92.50
53264;DHT22;39153;52.680;6.172;2022-08-05T14:26:36;22.10;92.40
53264;DHT22;39153;52.680;6.172;2022-08-05T14:29:02;22.10;92.60
53264;DHT22;39153;52.680;6.172;2022-08-05T14:31:28;22.70;92.20
53264;DHT22;39153;52.680;6.172;2022-08-05T14:33:53;23.00;91.50
53264;DHT22;39153;52.680;6.172;2022-08-05T14:36:19;22.90;91.80
53264;DHT22;39153;52.680;6.172;2022-08-05T14:38:45;22.60;91.50
53264;DHT22;39153;52.680;6.172;2022-08-05T14:41:10;22.90;91.40
53264;DHT22;39153;52.680;6.172;2022-08-05T14:43:36;22.30;90.70
53264;DHT22;39153;52.680;6.172;2022-08-05T14:46:02;22.10;91.10
53264;DHT22;39153;52.680;6.172;2022-08-05T14:48:28;22.00;91.20
53264;DHT22;39153;52.680;6.172;2022-08-05T14:50:53;22.50;91.20
53264;DHT22;39153;52.680;6.172;2022-08-05T14:53:19;22.90;91.30
53264;DHT22;39153;52.680;6.172;2022-08-05T14:55:45;22.60;91.20
53264;DHT22;39153;52.680;6.172;2022-08-05T14:58:10;22.30;90.70
53264;DHT22;39153;52.680;6.172;2022-08-05T15:00:36;23.30;90.70
53264;DHT22;39153;52.680;6.172;2022-08-05T15:03:03;23.30;90.20
53264;DHT22;39153;52.680;6.172;2022-08-05T15:05:31;23.40;91.30
53264;DHT22;39153;52.680;6.172;2022-08-05T15:07:56;23.80;89.80
53264;DHT22;39153;52.680;6.172;2022-08-05T15:10:22;23.90;89.70
53264;DHT22;39153;52.680;6.172;2022-08-05T15:12:48;23.60;89.80
53264;DHT22;39153;52.680;6.172;2022-08-05T15:15:14;23.70;91.00
53264;DHT22;39153;52.680;6.172;2022-08-05T15:17:39;23.10;88.60
53264;DHT22;39153;52.680;6.172;2022-08-05T15:20:06;23.50;89.10
53264;DHT22;39153;52.680;6.172;2022-08-05T15:22:32;23.50;90.00
53264;DHT22;39153;52.680;6.172;2022-08-05T15:24:58;23.60;88.10
53264;DHT22;39153;52.680;6.172;2022-08-05T15:27:24;23.40;88.30
53264;DHT22;39153;52.680;6.172;2022-08-05T15:29:50;23.90;87.50
53264;DHT22;39153;52.680;6.172;2022-08-05T15:32:15;23.90;88.60
53264;DHT22;39153;52.680;6.172;2022-08-05T15:34:41;24.50;86.20
53264;DHT22;39153;52.680;6.172;2022-08-05T15:37:07;24.40;87.00
53264;DHT22;39153;52.680;6.172;2022-08-05T15:39:33;24.60;85.70
53264;DHT22;39153;52.680;6.172;2022-08-05T15:41:58;24.40;85.60
53264;DHT22;39153;52.680;6.172;2022-08-05T15:44:25;24.60;84.40
53264;DHT22;39153;52.680;6.172;2022-08-05T15:46:50;24.60;86.20
53264;DHT22;39153;52.680;6.172;2022-08-05T15:49:16;24.60;86.60
53264;DHT22;39153;52.680;6.172;2022-08-05T15:51:41;24.80;86.10
53264;DHT22;39153;52.680;6.172;2022-08-05T15:54:07;24.90;85.40
53264;DHT22;39153;52.680;6.172;2022-08-05T15:56:33;24.40;86.20
53264;DHT22;39153;52.680;6.172;2022-08-05T15:58:58;23.70;86.70
53264;DHT22;39153;52.680;6.172;2022-08-05T16:01:24;24.10;86.90
53264;DHT22;39153;52.680;6.172;2022-08-05T16:03:50;24.10;86.10
53264;DHT22;39153;52.680;6.172;2022-08-05T16:06:16;23.10;86.90
53264;DHT22;39153;52.680;6.172;2022-08-05T16:08:42;22.70;88.50
53264;DHT22;39153;52.680;6.172;2022-08-05T16:11:08;22.40;88.60